createdAt,value
2018-08-20T00:00:57.698Z,101517.59
2018-08-20T00:02:01.871Z,101519.28
2018-08-20T00:03:06.223Z,101519.28
2018-08-20T00:04:10.834Z,101516.23
2018-08-20T00:05:15.083Z,101521.14
2018-08-20T00:06:19.915Z,101519.78
2018-08-20T00:07:24.107Z,101521.31
2018-08-20T00:08:28.306Z,101518.94
2018-08-20T00:09:38.138Z,101513.19
2018-08-20T00:10:42.312Z,101515.89
2018-08-20T00:11:46.940Z,101513.91
2018-08-20T00:12:51.117Z,101513.56
2018-08-20T00:13:55.299Z,101512.92
2018-08-20T00:14:59.790Z,101519.37
2018-08-20T00:16:03.926Z,101517.03
2018-08-20T00:17:08.314Z,101520.77
2018-08-20T00:18:17.763Z,101520.09
2018-08-20T00:19:21.944Z,101523.52
2018-08-20T00:20:26.090Z,101523.18
2018-08-20T00:21:30.403Z,101523.56
2018-08-20T00:22:34.573Z,101526.27
2018-08-20T00:23:38.770Z,101525.59
2018-08-20T00:24:42.978Z,101526.64
2018-08-20T00:25:47.167Z,101529.02
2018-08-20T00:26:51.504Z,101520.42
2018-08-20T00:27:55.678Z,101530.41
2018-08-20T00:28:59.842Z,101525.70
2018-08-20T00:30:04.391Z,101522.33
2018-08-20T00:31:08.758Z,101524.73
2018-08-20T00:32:13.012Z,101525.75
2018-08-20T00:33:17.229Z,101524.59
2018-08-20T00:34:21.463Z,101518.00
2018-08-20T00:35:25.671Z,101526.97
2018-08-20T00:36:29.834Z,101528.83
2018-08-20T00:37:33.979Z,101525.78
2018-08-20T00:38:38.244Z,101532.25
2018-08-20T00:39:42.461Z,101531.58
2018-08-20T00:40:47.005Z,101530.09
2018-08-20T00:41:51.251Z,101534.86
2018-08-20T00:42:55.473Z,101531.68
2018-08-20T00:43:59.612Z,101533.88
2018-08-20T00:45:05.142Z,101529.82
2018-08-20T00:46:09.351Z,101531.17
2018-08-20T00:47:13.529Z,101529.14
2018-08-20T00:48:17.705Z,101529.65
2018-08-20T00:49:22.054Z,101524.74
2018-08-20T00:50:26.207Z,101522.95
2018-08-20T00:51:30.550Z,101521.59
2018-08-20T00:52:34.915Z,101528.87
2018-08-20T00:53:39.184Z,101521.27
2018-08-20T00:54:43.406Z,101520.08
2018-08-20T00:55:47.520Z,101521.77
2018-08-20T00:56:51.702Z,101519.06
2018-08-20T00:57:55.907Z,101519.56
2018-08-20T00:59:00.463Z,101520.08
2018-08-20T01:00:05.145Z,101518.42
2018-08-20T01:01:09.327Z,101514.87
2018-08-20T01:02:13.578Z,101521.80
2018-08-20T01:03:17.958Z,101517.10
2018-08-20T01:04:22.138Z,101515.41
2018-08-20T01:05:26.295Z,101513.21
2018-08-20T01:06:30.620Z,101515.07
2018-08-20T01:07:34.815Z,101512.19
2018-08-20T01:08:38.970Z,101515.91
2018-08-20T01:09:43.151Z,101513.92
2018-08-20T01:10:47.366Z,101511.86
2018-08-20T01:11:51.686Z,101512.36
2018-08-20T01:12:55.879Z,101511.34
2018-08-20T01:14:00.113Z,101509.15
2018-08-20T01:15:04.329Z,101509.86
2018-08-20T01:16:08.539Z,101508.67
2018-08-20T01:17:12.699Z,101507.33
2018-08-20T01:18:17.062Z,101515.27
2018-08-20T01:19:21.235Z,101511.86
2018-08-20T01:20:25.763Z,101509.48
2018-08-20T01:21:29.952Z,101510.98
2018-08-20T01:22:34.090Z,101517.57
2018-08-20T01:23:38.342Z,101516.52
2018-08-20T01:24:42.478Z,101509.92
2018-08-20T01:25:46.683Z,101512.13
2018-08-20T01:26:50.857Z,101512.42
2018-08-20T01:27:55.182Z,101512.94
2018-08-20T01:28:59.427Z,101505.02
2018-08-20T01:30:03.826Z,101508.73
2018-08-20T01:31:08.003Z,101504.68
2018-08-20T01:32:12.371Z,101505.39
2018-08-20T01:33:17.042Z,101501.33
2018-08-20T01:34:21.421Z,101499.13
2018-08-20T01:35:27.529Z,101502.98
2018-08-20T01:36:31.841Z,101498.42
2018-08-20T01:37:36.182Z,101502.48
2018-08-20T01:38:40.347Z,101502.98
2018-08-20T01:39:44.893Z,101507.05
2018-08-20T01:40:49.057Z,101512.47
2018-08-20T01:41:53.227Z,101513.81
2018-08-20T01:42:57.412Z,101510.47
2018-08-20T01:44:01.543Z,101507.12
2018-08-20T01:45:06.130Z,101511.55
2018-08-20T01:46:10.450Z,101518.15
2018-08-20T01:47:14.819Z,101514.29
2018-08-20T01:48:19.018Z,101512.97
2018-08-20T01:49:23.166Z,101513.34
2018-08-20T01:50:27.359Z,101513.38
2018-08-20T01:51:31.525Z,101509.69
2018-08-20T01:52:35.696Z,101516.28
2018-08-20T01:53:40.094Z,101518.84
2018-08-20T01:54:44.284Z,101517.16
2018-08-20T01:55:48.725Z,101516.81
2018-08-20T01:56:52.871Z,101511.10
2018-08-20T01:57:57.128Z,101512.96
2018-08-20T01:59:01.309Z,101516.34
2018-08-20T02:00:06.055Z,101515.05
2018-08-20T02:01:10.310Z,101510.82
2018-08-20T02:02:14.498Z,101509.16
2018-08-20T02:03:18.748Z,101514.73
2018-08-20T02:04:22.889Z,101510.38
2018-08-20T02:05:27.184Z,101511.73
2018-08-20T02:06:31.395Z,101510.54
2018-08-20T02:07:35.611Z,101505.30
2018-08-20T02:08:39.806Z,101515.30
2018-08-20T02:09:43.993Z,101497.89
2018-08-20T02:10:48.198Z,101504.14
2018-08-20T02:11:52.395Z,101505.16
2018-08-20T02:12:56.609Z,101501.44
2018-08-20T02:14:00.795Z,101503.13
2018-08-20T02:15:05.471Z,101494.48
2018-08-20T02:16:10.217Z,101497.02
2018-08-20T02:17:14.630Z,101509.19
2018-08-20T02:18:19.150Z,101502.09
2018-08-20T02:19:23.291Z,101505.84
2018-08-20T02:20:27.462Z,101496.03
2018-08-20T02:21:31.607Z,101500.09
2018-08-20T02:22:35.803Z,101499.44
2018-08-20T02:23:39.974Z,101502.48
2018-08-20T02:24:44.151Z,101495.07
2018-08-20T02:25:48.317Z,101499.84
2018-08-20T02:26:52.508Z,101494.09
2018-08-20T02:27:56.731Z,101491.89
2018-08-20T02:29:00.932Z,101495.10
2018-08-20T02:30:05.746Z,101495.95
2018-08-20T02:31:09.921Z,101493.95
2018-08-20T02:32:14.063Z,101494.95
2018-08-20T02:33:18.240Z,101497.33
2018-08-20T02:34:22.484Z,101489.07
2018-08-20T02:35:26.590Z,101487.91
2018-08-20T02:36:30.840Z,101494.34
2018-08-20T02:37:40.083Z,101497.55
2018-08-20T02:38:44.316Z,101492.84
2018-08-20T02:39:48.489Z,101494.02
2018-08-20T02:40:52.806Z,101489.17
2018-08-20T02:41:57.092Z,101489.84
2018-08-20T02:43:01.263Z,101493.62
2018-08-20T02:44:05.488Z,101489.92
2018-08-20T02:45:11.999Z,101492.65
2018-08-20T02:46:16.848Z,101496.37
2018-08-20T02:47:21.020Z,101497.57
2018-08-20T02:48:25.229Z,101490.51
2018-08-20T02:49:29.402Z,101490.67
2018-08-20T02:50:33.599Z,101496.20
2018-08-20T02:51:37.805Z,101494.86
2018-08-20T02:52:42.891Z,101495.70
2018-08-20T02:53:47.138Z,101495.05
2018-08-20T02:54:51.494Z,101492.35
2018-08-20T02:55:55.686Z,101494.05
2018-08-20T02:56:59.870Z,101492.50
2018-08-20T02:58:04.073Z,101493.38
2018-08-20T02:59:08.265Z,101488.62
2018-08-20T03:00:13.959Z,101486.45
2018-08-20T03:01:18.131Z,101488.62
2018-08-20T03:02:22.327Z,101485.41
2018-08-20T03:03:26.520Z,101484.56
2018-08-20T03:04:30.742Z,101484.06
2018-08-20T03:05:35.072Z,101484.39
2018-08-20T03:06:39.610Z,101481.50
2018-08-20T03:07:43.958Z,101483.53
2018-08-20T03:08:48.126Z,101490.63
2018-08-20T03:09:52.371Z,101483.53
2018-08-20T03:10:56.560Z,101481.98
2018-08-20T03:12:00.778Z,101479.62
2018-08-20T03:13:05.156Z,101479.77
2018-08-20T03:14:09.663Z,101474.05
2018-08-20T03:15:13.836Z,101478.41
2018-08-20T03:16:18.066Z,101477.56
2018-08-20T03:17:22.214Z,101483.17
2018-08-20T03:18:26.661Z,101480.83
2018-08-20T03:19:30.825Z,101485.22
2018-08-20T03:20:35.014Z,101481.33
2018-08-20T03:21:39.397Z,101487.24
2018-08-20T03:22:43.571Z,101490.96
2018-08-20T03:23:47.788Z,101487.75
2018-08-20T03:24:51.967Z,101490.14
2018-08-20T03:25:56.159Z,101493.02
2018-08-20T03:27:00.371Z,101498.42
2018-08-20T03:28:04.551Z,101497.57
2018-08-20T03:29:08.763Z,101499.13
2018-08-20T03:30:12.970Z,101501.83
2018-08-20T03:31:17.186Z,101504.53
2018-08-20T03:32:21.389Z,101505.88
2018-08-20T03:33:25.595Z,101504.66
2018-08-20T03:34:29.801Z,101503.81
2018-08-20T03:35:34.231Z,101501.81
2018-08-20T03:36:38.417Z,101502.82
2018-08-20T03:37:42.726Z,101501.47
2018-08-20T03:38:46.928Z,101500.45
2018-08-20T03:39:51.136Z,101501.81
2018-08-20T03:40:55.322Z,101503.81
2018-08-20T03:41:59.545Z,101503.50
2018-08-20T03:43:03.781Z,101505.02
2018-08-20T03:44:07.979Z,101500.11
2018-08-20T03:45:12.245Z,101503.52
2018-08-20T03:46:16.395Z,101495.92
2018-08-20T03:47:20.939Z,101499.13
2018-08-20T03:48:25.218Z,101507.09
2018-08-20T03:49:29.903Z,101504.38
2018-08-20T03:50:34.115Z,101500.33
2018-08-20T03:51:38.318Z,101499.48
2018-08-20T03:52:42.710Z,101504.55
2018-08-20T03:53:47.018Z,101504.55
2018-08-20T03:54:51.201Z,101505.90
2018-08-20T03:55:55.393Z,101511.00
2018-08-20T03:56:59.567Z,101508.29
2018-08-20T03:58:03.788Z,101512.34
2018-08-20T03:59:08.369Z,101506.44
2018-08-20T04:00:12.885Z,101506.09
2018-08-20T04:01:17.077Z,101508.45
2018-08-20T04:02:21.303Z,101508.31
2018-08-20T04:03:25.581Z,101508.31
2018-08-20T04:04:30.415Z,101511.02
2018-08-20T04:05:34.778Z,101514.87
2018-08-20T04:06:38.984Z,101511.66
2018-08-20T04:07:43.231Z,101512.34
2018-08-20T04:08:47.435Z,101515.36
2018-08-20T04:09:51.806Z,101515.70
2018-08-20T04:10:55.995Z,101510.30
2018-08-20T04:12:01.035Z,101512.49
2018-08-20T04:13:05.271Z,101510.30
2018-08-20T04:14:09.436Z,101510.44
2018-08-20T04:15:13.640Z,101517.03
2018-08-20T04:16:17.841Z,101517.38
2018-08-20T04:17:22.012Z,101514.33
2018-08-20T04:18:26.198Z,101515.68
2018-08-20T04:19:30.684Z,101515.68
2018-08-20T04:20:34.898Z,101510.62
2018-08-20T04:21:39.047Z,101508.22
2018-08-20T04:22:43.242Z,101514.13
2018-08-20T04:23:47.570Z,101503.86
2018-08-20T04:24:51.742Z,101502.31
2018-08-20T04:25:56.003Z,101511.61
2018-08-20T04:27:00.225Z,101509.22
2018-08-20T04:28:04.515Z,101510.06
2018-08-20T04:29:08.898Z,101505.53
2018-08-20T04:30:13.060Z,101507.23
2018-08-20T04:31:17.236Z,101502.33
2018-08-20T04:32:21.394Z,101499.62
2018-08-20T04:33:25.551Z,101498.92
2018-08-20T04:34:30.026Z,101503.83
2018-08-20T04:35:34.215Z,101501.13
2018-08-20T04:36:38.423Z,101499.91
2018-08-20T04:37:42.576Z,101502.11
2018-08-20T04:38:46.727Z,101497.41
2018-08-20T04:39:50.879Z,101501.77
2018-08-20T04:40:55.096Z,101498.77
2018-08-20T04:41:59.276Z,101500.61
2018-08-20T04:43:03.435Z,101499.97
2018-08-20T04:44:08.216Z,101501.31
2018-08-20T04:45:12.486Z,101504.53
2018-08-20T04:46:16.664Z,101504.19
2018-08-20T04:47:20.827Z,101506.20
2018-08-20T04:48:24.971Z,101506.02
2018-08-20T04:49:29.178Z,101510.78
2018-08-20T04:50:33.762Z,101502.84
2018-08-20T04:51:38.010Z,101511.98
2018-08-20T04:52:42.218Z,101507.25
2018-08-20T04:53:46.375Z,101510.15
2018-08-20T04:54:50.613Z,101511.50
2018-08-20T04:55:54.843Z,101505.75
2018-08-20T04:56:59.433Z,101510.31
2018-08-20T04:58:03.662Z,101504.59
2018-08-20T04:59:07.843Z,101508.65
2018-08-20T05:00:12.417Z,101502.56
2018-08-20T05:01:16.648Z,101504.59
2018-08-20T05:02:20.830Z,101507.95
2018-08-20T05:03:25.023Z,101507.25
2018-08-20T05:04:29.407Z,101501.48
2018-08-20T05:05:33.643Z,101508.59
2018-08-20T05:06:37.879Z,101511.97
2018-08-20T05:07:42.019Z,101506.02
2018-08-20T05:08:46.203Z,101504.17
2018-08-20T05:09:50.395Z,101502.45
2018-08-20T05:10:54.548Z,101505.03
2018-08-20T05:11:58.727Z,101509.09
2018-08-20T05:13:02.884Z,101508.58
2018-08-20T05:14:07.434Z,101511.59
2018-08-20T05:15:11.590Z,101507.87
2018-08-20T05:16:15.777Z,101508.72
2018-08-20T05:17:19.947Z,101514.47
2018-08-20T05:18:24.176Z,101508.22
2018-08-20T05:19:28.748Z,101511.58
2018-08-20T05:20:32.914Z,101514.11
2018-08-20T05:21:37.279Z,101514.62
2018-08-20T05:22:41.483Z,101512.91
2018-08-20T05:23:46.496Z,101514.25
2018-08-20T05:24:50.666Z,101515.61
2018-08-20T05:25:54.918Z,101514.59
2018-08-20T05:26:59.076Z,101513.41
2018-08-20T05:28:03.323Z,101512.05
2018-08-20T05:29:07.696Z,101514.59
2018-08-20T05:30:11.943Z,101517.61
2018-08-20T05:31:16.091Z,101513.55
2018-08-20T05:32:20.312Z,101516.59
2018-08-20T05:33:24.483Z,101528.06
2018-08-20T05:34:28.662Z,101527.25
2018-08-20T05:35:32.871Z,101520.99
2018-08-20T05:36:43.643Z,101521.64
2018-08-20T05:37:47.831Z,101527.05
2018-08-20T05:38:52.035Z,101517.78
2018-08-20T05:39:56.240Z,101524.00
2018-08-20T05:41:00.651Z,101520.29
2018-08-20T05:42:05.097Z,101521.64
2018-08-20T05:43:09.395Z,101522.15
2018-08-20T05:44:13.552Z,101520.29
2018-08-20T05:45:17.779Z,101525.70
2018-08-20T05:46:21.963Z,101525.36
2018-08-20T05:47:26.190Z,101526.70
2018-08-20T05:48:30.404Z,101529.25
2018-08-20T05:49:34.600Z,101528.40
2018-08-20T05:50:38.781Z,101529.59
2018-08-20T05:51:42.983Z,101529.05
2018-08-20T05:52:47.168Z,101529.05
2018-08-20T05:53:51.329Z,101532.80
2018-08-20T05:54:55.499Z,101530.09
2018-08-20T05:55:59.726Z,101534.45
2018-08-20T05:57:04.010Z,101536.01
2018-08-20T05:58:08.258Z,101534.45
2018-08-20T05:59:12.521Z,101533.45
2018-08-20T06:00:17.684Z,101536.49
2018-08-20T06:01:21.877Z,101532.94
2018-08-20T06:02:26.393Z,101537.50
2018-08-20T06:03:30.596Z,101536.66
2018-08-20T06:04:34.763Z,101539.87
2018-08-20T06:05:38.986Z,101534.45
2018-08-20T06:06:43.187Z,101539.36
2018-08-20T06:07:47.416Z,101539.70
2018-08-20T06:08:51.706Z,101541.05
2018-08-20T06:09:55.929Z,101539.84
2018-08-20T06:11:00.104Z,101542.05
2018-08-20T06:12:04.340Z,101540.19
2018-08-20T06:13:08.560Z,101545.59
2018-08-20T06:14:12.731Z,101542.38
2018-08-20T06:15:16.950Z,101546.60
2018-08-20T06:16:21.160Z,101541.20
2018-08-20T06:17:25.348Z,101546.30
2018-08-20T06:18:30.571Z,101545.75
2018-08-20T06:19:35.043Z,101548.46
2018-08-20T06:20:39.265Z,101546.44
2018-08-20T06:21:43.428Z,101547.94
2018-08-20T06:22:47.612Z,101550.47
2018-08-20T06:23:51.830Z,101547.23
2018-08-20T06:24:56.579Z,101549.07
2018-08-20T06:26:00.757Z,101553.47
2018-08-20T06:27:05.390Z,101559.72
2018-08-20T06:28:09.575Z,101558.03
2018-08-20T06:29:13.780Z,101556.17
2018-08-20T06:30:18.964Z,101560.56
2018-08-20T06:31:23.120Z,101563.08
2018-08-20T06:32:27.268Z,101555.64
2018-08-20T06:33:31.719Z,101554.94
2018-08-20T06:34:35.929Z,101554.43
2018-08-20T06:35:40.112Z,101554.43
2018-08-20T06:36:44.494Z,101558.66
2018-08-20T06:37:48.676Z,101558.66
2018-08-20T06:38:52.878Z,101555.64
2018-08-20T06:39:57.083Z,101555.64
2018-08-20T06:41:01.479Z,101560.52
2018-08-20T06:42:05.920Z,101564.57
2018-08-20T06:43:10.119Z,101561.70
2018-08-20T06:44:14.289Z,101560.34
2018-08-20T06:45:18.519Z,101565.76
2018-08-20T06:46:23.024Z,101560.01
2018-08-20T06:47:27.207Z,101563.05
2018-08-20T06:48:31.514Z,101560.34
2018-08-20T06:49:36.026Z,101562.04
2018-08-20T06:50:40.224Z,101567.76
2018-08-20T06:51:44.646Z,101566.75
2018-08-20T06:52:48.780Z,101571.14
2018-08-20T06:53:52.940Z,101570.44
2018-08-20T06:54:57.154Z,101571.80
2018-08-20T06:56:01.338Z,101569.59
2018-08-20T06:57:05.566Z,101569.94
2018-08-20T06:58:09.769Z,101573.83
2018-08-20T06:59:13.954Z,101573.83
2018-08-20T07:00:18.488Z,101568.75
2018-08-20T07:01:22.646Z,101567.73
2018-08-20T07:02:26.856Z,101574.16
2018-08-20T07:03:31.025Z,101567.94
2018-08-20T07:04:35.410Z,101573.28
2018-08-20T07:05:39.616Z,101575.13
2018-08-20T07:06:43.834Z,101576.31
2018-08-20T07:07:47.992Z,101580.00
2018-08-20T07:08:52.335Z,101580.85
2018-08-20T07:09:56.523Z,101580.85
2018-08-20T07:11:00.745Z,101579.50
2018-08-20T07:12:05.051Z,101589.27
2018-08-20T07:13:31.683Z,101587.92
2018-08-20T07:14:36.275Z,101594.69
2018-08-20T07:15:40.458Z,101591.67
2018-08-20T07:16:44.694Z,101594.69
2018-08-20T07:17:48.943Z,101589.98
2018-08-20T07:18:53.794Z,101594.38
2018-08-20T07:19:58.249Z,101596.03
2018-08-20T07:21:02.656Z,101598.74
2018-08-20T07:22:07.050Z,101594.38
2018-08-20T07:23:11.232Z,101589.98
2018-08-20T07:24:15.450Z,101594.38
2018-08-20T07:25:19.658Z,101596.74
2018-08-20T07:26:23.858Z,101598.09
2018-08-20T07:27:28.099Z,101599.45
2018-08-20T07:28:32.347Z,101601.64
2018-08-20T07:29:42.163Z,101596.40
2018-08-20T07:30:46.608Z,101600.46
2018-08-20T07:31:50.788Z,101603.87
2018-08-20T07:32:55.114Z,101605.92
2018-08-20T07:33:59.329Z,101607.09
2018-08-20T07:35:03.581Z,101609.31
2018-08-20T07:36:07.843Z,101612.38
2018-08-20T07:37:13.320Z,101609.37
2018-08-20T07:38:17.542Z,101610.38
2018-08-20T07:39:21.888Z,101614.09
2018-08-20T07:40:26.359Z,101611.08
2018-08-20T07:41:31.546Z,101615.64
2018-08-20T07:42:35.871Z,101612.59
2018-08-20T07:43:40.159Z,101619.86
2018-08-20T07:44:45.229Z,101621.41
2018-08-20T07:45:49.477Z,101623.27
2018-08-20T07:46:53.928Z,101612.45
2018-08-20T07:47:58.338Z,101617.52
2018-08-20T07:49:07.103Z,101623.94
2018-08-20T07:50:11.642Z,101620.24
2018-08-20T07:51:16.168Z,101621.64
2018-08-20T07:52:20.448Z,101618.61
2018-08-20T07:53:24.886Z,101618.27
2018-08-20T07:54:29.066Z,101626.23
2018-08-20T07:55:33.421Z,101622.03
2018-08-20T07:56:37.620Z,101623.39
2018-08-20T07:57:42.013Z,101624.09
2018-08-20T07:58:46.182Z,101624.95
2018-08-20T07:59:50.363Z,101627.66
2018-08-20T08:00:54.628Z,101635.92
2018-08-20T08:01:58.955Z,101631.22
2018-08-20T08:03:03.212Z,101632.19
2018-08-20T08:04:07.460Z,101628.84
2018-08-20T08:05:12.349Z,101634.23
2018-08-20T08:06:16.596Z,101638.99
2018-08-20T08:07:21.466Z,101640.00
2018-08-20T08:08:25.691Z,101635.60
2018-08-20T08:09:29.898Z,101639.31
2018-08-20T08:10:34.096Z,101632.24
2018-08-20T08:11:38.344Z,101633.91
2018-08-20T08:12:42.934Z,101635.60
2018-08-20T08:13:47.132Z,101636.80
2018-08-20T08:14:51.342Z,101638.45
2018-08-20T08:15:55.582Z,101635.59
2018-08-20T08:16:59.843Z,101632.70
2018-08-20T08:18:04.083Z,101641.02
2018-08-20T08:19:08.373Z,101636.27
2018-08-20T08:20:13.979Z,101635.91
2018-08-20T08:21:18.145Z,101638.27
2018-08-20T08:22:22.394Z,101638.95
2018-08-20T08:23:26.556Z,101639.44
2018-08-20T08:24:30.756Z,101638.91
2018-08-20T08:25:35.023Z,101638.23
2018-08-20T08:26:45.599Z,101643.95
2018-08-20T08:27:49.852Z,101644.30
2018-08-20T08:28:54.304Z,101641.59
2018-08-20T08:29:58.509Z,101643.63
2018-08-20T08:31:02.783Z,101647.69
2018-08-20T08:32:07.063Z,101645.30
2018-08-20T08:33:11.391Z,101651.05
2018-08-20T08:34:15.663Z,101649.84
2018-08-20T08:35:19.899Z,101650.18
2018-08-20T08:36:24.154Z,101647.48
2018-08-20T08:37:28.355Z,101653.73
2018-08-20T08:38:32.588Z,101644.92
2018-08-20T08:39:36.815Z,101647.97
2018-08-20T08:40:41.008Z,101650.66
2018-08-20T08:41:45.203Z,101653.36
2018-08-20T08:42:49.461Z,101645.25
2018-08-20T08:43:53.692Z,101653.50
2018-08-20T08:44:57.901Z,101652.64
2018-08-20T08:46:02.144Z,101652.45
2018-08-20T08:47:06.619Z,101651.92
2018-08-20T08:48:11.163Z,101652.58
2018-08-20T08:49:15.428Z,101651.56
2018-08-20T08:50:19.743Z,101652.41
2018-08-20T08:51:23.962Z,101655.97
2018-08-20T08:52:28.290Z,101654.27
2018-08-20T08:53:32.560Z,101657.98
2018-08-20T08:54:36.765Z,101647.19
2018-08-20T08:55:40.961Z,101653.95
2018-08-20T08:56:45.179Z,101655.30
2018-08-20T08:57:49.363Z,101650.23
2018-08-20T08:58:53.611Z,101650.23
2018-08-20T08:59:57.868Z,101655.79
2018-08-20T09:01:02.153Z,101657.98
2018-08-20T09:02:06.406Z,101659.69
2018-08-20T09:03:10.601Z,101655.62
2018-08-20T09:04:14.820Z,101666.08
2018-08-20T09:05:18.995Z,101661.18
2018-08-20T09:06:23.238Z,101659.33
2018-08-20T09:07:27.579Z,101662.17
2018-08-20T09:08:31.898Z,101660.82
2018-08-20T09:09:36.137Z,101667.92
2018-08-20T09:10:40.548Z,101659.30
2018-08-20T09:11:44.803Z,101659.81
2018-08-20T09:12:49.073Z,101667.73
2018-08-20T09:13:53.289Z,101661.65
2018-08-20T09:14:57.480Z,101664.36
2018-08-20T09:16:01.794Z,101669.77
2018-08-20T09:17:05.981Z,101663.16
2018-08-20T09:18:10.301Z,101666.91
2018-08-20T09:19:14.468Z,101666.72
2018-08-20T09:20:18.915Z,101670.61
2018-08-20T09:21:23.152Z,101668.55
2018-08-20T09:22:27.335Z,101671.09
2018-08-20T09:23:31.734Z,101673.80
2018-08-20T09:24:36.123Z,101666.70
2018-08-20T09:25:40.353Z,101670.92
2018-08-20T09:26:44.538Z,101668.58
2018-08-20T09:27:48.725Z,101670.13
2018-08-20T09:28:52.914Z,101671.98
2018-08-20T09:29:57.130Z,101669.44
2018-08-20T09:31:01.311Z,101672.69
2018-08-20T09:32:05.662Z,101670.98
2018-08-20T09:33:09.875Z,101674.20
2018-08-20T09:34:14.404Z,101673.55
2018-08-20T09:35:18.593Z,101673.71
2018-08-20T09:36:22.776Z,101669.31
2018-08-20T09:37:27.134Z,101672.36
2018-08-20T09:38:31.523Z,101670.00
2018-08-20T09:39:35.743Z,101670.14
2018-08-20T09:40:39.942Z,101682.31
2018-08-20T09:41:44.095Z,101674.36
2018-08-20T09:42:48.287Z,101677.07
2018-08-20T09:43:52.507Z,101677.77
2018-08-20T09:44:56.743Z,101684.19
2018-08-20T09:46:00.968Z,101674.23
2018-08-20T09:47:05.238Z,101680.34
2018-08-20T09:48:09.555Z,101676.64
2018-08-20T09:49:13.940Z,101681.04
2018-08-20T09:50:18.124Z,101678.00
2018-08-20T09:51:22.331Z,101680.00
2018-08-20T09:52:26.496Z,101681.00
2018-08-20T09:53:30.841Z,101684.38
2018-08-20T09:54:35.020Z,101684.53
2018-08-20T09:55:39.186Z,101686.73
2018-08-20T09:56:43.382Z,101684.03
2018-08-20T09:57:47.589Z,101685.72
2018-08-20T09:58:51.836Z,101684.67
2018-08-20T09:59:56.148Z,101683.33
2018-08-20T10:01:00.332Z,101682.31
2018-08-20T10:02:04.660Z,101680.45
2018-08-20T10:03:09.582Z,101681.81
2018-08-20T10:04:13.786Z,101676.56
2018-08-20T10:05:18.562Z,101677.41
2018-08-20T10:06:22.755Z,101675.72
2018-08-20T10:07:27.007Z,101677.25
2018-08-20T10:08:31.230Z,101674.34
2018-08-20T10:09:35.625Z,101674.34
2018-08-20T10:10:39.805Z,101673.34
2018-08-20T10:11:43.982Z,101678.55
2018-08-20T10:12:48.191Z,101675.34
2018-08-20T10:13:52.759Z,101672.12
2018-08-20T10:14:57.131Z,101675.17
2018-08-20T10:16:01.426Z,101671.97
2018-08-20T10:17:05.606Z,101673.83
2018-08-20T10:18:10.167Z,101674.16
2018-08-20T10:19:14.708Z,101674.47
2018-08-20T10:20:19.223Z,101676.17
2018-08-20T10:21:23.366Z,101674.11
2018-08-20T10:22:27.535Z,101674.80
2018-08-20T10:23:31.732Z,101675.61
2018-08-20T10:24:35.886Z,101676.97
2018-08-20T10:25:40.096Z,101672.09
2018-08-20T10:26:44.266Z,101681.22
2018-08-20T10:27:48.425Z,101676.82
2018-08-20T10:28:52.863Z,101679.52
2018-08-20T10:29:57.008Z,101682.21
2018-08-20T10:31:01.183Z,101679.84
2018-08-20T10:32:05.438Z,101675.94
2018-08-20T10:33:09.682Z,101682.20
2018-08-20T10:34:13.818Z,101673.72
2018-08-20T10:35:18.014Z,101674.88
2018-08-20T10:36:22.326Z,101681.98
2018-08-20T10:37:26.661Z,101683.14
2018-08-20T10:38:30.848Z,101682.78
2018-08-20T10:39:35.223Z,101679.40
2018-08-20T10:40:39.433Z,101683.60
2018-08-20T10:41:43.703Z,101680.02
2018-08-20T10:42:48.027Z,101669.81
2018-08-20T10:43:52.199Z,101672.27
2018-08-20T10:45:01.776Z,101673.38
2018-08-20T10:46:11.612Z,101672.80
2018-08-20T10:47:15.818Z,101671.05
2018-08-20T10:48:20.230Z,101671.66
2018-08-20T10:49:24.455Z,101673.94
2018-08-20T10:50:28.693Z,101672.00
2018-08-20T10:51:33.149Z,101673.08
2018-08-20T10:52:37.356Z,101667.25
2018-08-20T10:53:41.522Z,101672.22
2018-08-20T10:54:46.075Z,101673.16
2018-08-20T10:55:50.510Z,101668.16
2018-08-20T10:56:54.676Z,101672.31
2018-08-20T10:57:58.895Z,101669.48
2018-08-20T10:59:03.098Z,101678.78
2018-08-20T11:00:07.315Z,101674.34
2018-08-20T11:01:11.715Z,101677.52
2018-08-20T11:02:15.875Z,101672.85
2018-08-20T11:03:20.149Z,101676.16
2018-08-20T11:04:24.311Z,101675.72
2018-08-20T11:05:28.594Z,101670.88
2018-08-20T11:06:32.799Z,101679.31
2018-08-20T11:07:36.955Z,101677.05
2018-08-20T11:08:41.150Z,101680.23
2018-08-20T11:09:45.326Z,101678.81
2018-08-20T11:10:49.544Z,101677.07
2018-08-20T11:11:53.809Z,101682.02
2018-08-20T11:12:57.990Z,101676.23
2018-08-20T11:14:02.268Z,101677.03
2018-08-20T11:15:07.881Z,101682.28
2018-08-20T11:16:12.179Z,101674.25
2018-08-20T11:17:16.396Z,101678.12
2018-08-20T11:18:20.672Z,101678.78
2018-08-20T11:19:24.843Z,101670.58
2018-08-20T11:20:29.373Z,101671.21
2018-08-20T11:21:33.607Z,101669.12
2018-08-20T11:22:37.776Z,101675.41
2018-08-20T11:23:41.976Z,101672.30
2018-08-20T11:24:46.468Z,101670.37
2018-08-20T11:25:50.647Z,101672.69
2018-08-20T11:26:54.898Z,101670.60
2018-08-20T11:27:59.202Z,101673.98
2018-08-20T11:29:03.402Z,101667.50
2018-08-20T11:30:09.169Z,101665.77
2018-08-20T11:31:13.293Z,101667.03
2018-08-20T11:32:17.652Z,101666.34
2018-08-20T11:33:21.787Z,101664.07
2018-08-20T11:34:25.980Z,101664.48
2018-08-20T11:35:30.527Z,101660.86
2018-08-20T11:36:34.770Z,101665.20
2018-08-20T11:37:38.913Z,101663.23
2018-08-20T11:38:43.067Z,101657.61
2018-08-20T11:39:47.203Z,101657.21
2018-08-20T11:40:51.391Z,101663.64
2018-08-20T11:41:55.536Z,101657.28
2018-08-20T11:42:59.679Z,101657.73
2018-08-20T11:44:04.087Z,101656.48
2018-08-20T11:45:14.365Z,101655.13
2018-08-20T11:46:18.695Z,101657.84
2018-08-20T11:47:23.000Z,101661.22
2018-08-20T11:48:27.218Z,101655.57
2018-08-20T11:49:31.545Z,101655.68
2018-08-20T11:50:35.721Z,101657.70
2018-08-20T11:51:40.192Z,101656.97
2018-08-20T11:52:44.355Z,101652.48
2018-08-20T11:53:48.495Z,101650.42
2018-08-20T11:54:53.340Z,101651.90
2018-08-20T11:55:57.486Z,101649.29
2018-08-20T11:57:01.682Z,101642.30
2018-08-20T11:58:05.958Z,101640.54
2018-08-20T11:59:10.235Z,101640.65
2018-08-20T12:00:14.364Z,101639.91
2018-08-20T12:01:18.576Z,101639.21
2018-08-20T12:02:22.742Z,101641.71
2018-08-20T12:03:26.907Z,101635.02
2018-08-20T12:04:31.391Z,101635.02
2018-08-20T12:05:35.915Z,101642.15
2018-08-20T12:06:40.619Z,101640.46
2018-08-20T12:07:44.867Z,101641.71
2018-08-20T12:08:49.032Z,101644.66
2018-08-20T12:09:53.160Z,101646.42
2018-08-20T12:10:57.332Z,101656.75
2018-08-20T12:12:01.583Z,101646.42
2018-08-20T12:13:05.851Z,101655.20
2018-08-20T12:14:10.084Z,101644.66
2018-08-20T12:15:14.219Z,101651.05